Time;durP1;ratioP1;P1;durP2;ratioP2;P2;SDS_P1;SDS_P2;PMS_P1;PMS_P2;Temp;Humidity;BMP_temperature;BMP_pressure;BME280_temperature;BME280_humidity;BME280_pressure;Samples;Min_cycle;Max_cycle;Signal;HPM_P1;HPM_P2
2022/02/24 00:02:09;;;;;;;3.75;2.78;;;17.40;65.40;;;;;;5057455;28;20448;-21
2022/02/24 00:04:35;;;;;;;5.25;3.13;;;17.40;65.30;;;;;;5058329;28;20504;-23
2022/02/24 00:07:01;;;;;;;3.10;2.90;;;17.30;65.60;;;;;;5055381;28;20048;-21
2022/02/24 00:09:26;;;;;;;2.88;2.58;;;17.30;65.50;;;;;;5064090;28;20045;-21
2022/02/24 00:11:52;;;;;;;2.70;2.50;;;17.20;65.70;;;;;;5066519;28;20044;-22
2022/02/24 00:14:18;;;;;;;8.10;2.88;;;17.20;65.80;;;;;;5065203;28;20082;-21
2022/02/24 00:16:43;;;;;;;2.38;2.17;;;17.20;65.70;;;;;;5065140;28;20044;-21
2022/02/24 00:19:09;;;;;;;2.97;2.65;;;17.20;65.70;;;;;;5062409;28;20193;-21
2022/02/24 00:21:34;;;;;;;2.80;2.60;;;17.20;65.60;;;;;;5062860;28;20036;-21
2022/02/24 00:24:00;;;;;;;2.53;2.33;;;17.20;65.70;;;;;;5063833;28;20464;-21
2022/02/24 00:26:26;;;;;;;3.83;2.60;;;17.20;65.50;;;;;;5063846;28;20124;-21
2022/02/24 00:28:51;;;;;;;3.00;2.53;;;17.20;65.50;;;;;;5066374;28;20041;-21
2022/02/24 00:31:17;;;;;;;2.45;2.25;;;17.20;65.50;;;;;;5066153;28;20069;-21
2022/02/24 00:33:42;;;;;;;2.80;2.50;;;17.20;65.30;;;;;;5064065;28;20044;-21
2022/02/24 00:36:08;;;;;;;2.72;2.30;;;17.20;65.20;;;;;;5069607;28;20028;-21
2022/02/24 00:38:34;;;;;;;2.53;2.33;;;17.20;65.30;;;;;;5064612;28;20489;-21
2022/02/24 00:41:00;;;;;;;2.50;2.30;;;17.30;65.00;;;;;;5061697;28;20044;-21
2022/02/24 00:43:25;;;;;;;4.15;2.58;;;17.30;65.00;;;;;;5067179;28;20489;-21
2022/02/24 00:45:51;;;;;;;3.15;2.55;;;17.30;65.00;;;;;;5064151;28;20460;-21
2022/02/24 00:48:17;;;;;;;3.00;2.80;;;17.20;65.00;;;;;;5063855;28;20036;-21
2022/02/24 00:50:44;;;;;;;2.67;2.47;;;17.30;65.00;;;;;;5063580;28;20060;-21
2022/02/24 00:53:09;;;;;;;2.70;2.50;;;17.20;64.90;;;;;;5063435;28;20094;-21
2022/02/24 00:55:35;;;;;;;2.75;2.55;;;17.20;65.10;;;;;;5062789;28;20127;-21
2022/02/24 00:58:01;;;;;;;2.10;1.90;;;17.20;65.00;;;;;;5064274;28;20055;-21
2022/02/24 01:00:26;;;;;;;2.80;2.60;;;17.20;65.00;;;;;;5063697;28;20048;-21
2022/02/24 01:02:52;;;;;;;2.45;2.25;;;17.20;65.00;;;;;;5062059;28;20045;-21
2022/02/24 01:05:18;;;;;;;2.15;2.05;;;17.20;65.00;;;;;;5067815;28;20049;-21
2022/02/24 01:07:43;;;;;;;2.30;2.10;;;17.20;64.90;;;;;;5065517;28;20046;-21
2022/02/24 01:10:09;;;;;;;2.55;2.35;;;17.20;64.90;;;;;;5065868;28;20048;-21
2022/02/24 01:12:35;;;;;;;2.55;2.33;;;17.20;65.10;;;;;;5067137;28;20066;-21
2022/02/24 01:15:06;;;;;;;1.95;1.85;;;17.10;65.00;;;;;;5070010;28;20107;-21
2022/02/24 01:17:33;;;;;;;1.92;1.83;;;17.10;65.00;;;;;;5071228;28;20485;-21
2022/02/24 01:19:59;;;;;;;1.90;1.70;;;17.10;65.00;;;;;;5070634;28;20056;-21
2022/02/24 01:22:25;;;;;;;2.40;2.20;;;17.20;64.90;;;;;;5067999;28;20162;-21
2022/02/24 01:24:50;;;;;;;2.17;1.98;;;17.10;64.90;;;;;;5065591;28;20073;-21
2022/02/24 01:27:16;;;;;;;2.55;2.35;;;17.10;65.00;;;;;;5069904;28;20056;-21
2022/02/24 01:29:41;;;;;;;2.55;2.08;;;17.10;65.00;;;;;;5070880;28;20047;-21
2022/02/24 01:32:07;;;;;;;1.83;1.73;;;17.20;64.90;;;;;;5072535;28;20120;-21
2022/02/24 01:34:33;;;;;;;2.00;1.85;;;17.10;65.00;;;;;;5067238;28;20059;-21
2022/02/24 01:36:58;;;;;;;2.47;2.10;;;17.10;65.00;;;;;;5069307;28;20163;-22
2022/02/24 01:39:24;;;;;;;2.17;2.08;;;17.10;65.00;;;;;;5071635;28;20131;-21
2022/02/24 01:41:52;;;;;;;3.05;2.58;;;17.10;65.00;;;;;;5066080;28;20066;-21
2022/02/24 01:44:17;;;;;;;1.90;1.80;;;17.10;65.00;;;;;;5067093;28;20049;-21
2022/02/24 01:46:43;;;;;;;1.83;1.73;;;17.00;65.10;;;;;;5066706;28;20087;-21
2022/02/24 01:49:09;;;;;;;2.47;1.92;;;17.10;65.20;;;;;;5068010;28;20140;-21
2022/02/24 01:51:35;;;;;;;1.83;1.73;;;17.10;65.00;;;;;;5067815;28;20041;-22
2022/02/24 01:54:01;;;;;;;2.63;2.10;;;17.10;65.00;;;;;;5073917;28;20051;-21
2022/02/24 01:56:26;;;;;;;2.20;2.00;;;17.00;65.10;;;;;;5068527;28;20041;-21
2022/02/24 01:58:52;;;;;;;2.20;2.00;;;17.00;65.00;;;;;;5067640;28;20638;-21
2022/02/24 02:01:18;;;;;;;1.75;1.65;;;17.00;65.20;;;;;;5068271;28;20036;-21
2022/02/24 02:03:44;;;;;;;1.83;1.73;;;17.00;65.10;;;;;;5071202;28;20041;-21
2022/02/24 02:06:10;;;;;;;1.75;1.65;;;17.10;65.20;;;;;;5067500;28;20067;-21
2022/02/24 02:08:36;;;;;;;1.77;1.67;;;17.00;65.10;;;;;;5068463;28;20040;-22
2022/02/24 02:11:01;;;;;;;2.13;1.98;;;17.00;65.10;;;;;;5069735;28;20072;-21
2022/02/24 02:13:30;;;;;;;2.30;2.10;;;17.10;65.10;;;;;;5066789;28;20072;-21
2022/02/24 02:15:56;;;;;;;1.90;1.80;;;17.10;65.80;;;;;;5071745;28;20057;-21
2022/02/24 02:18:22;;;;;;;2.00;1.58;;;17.10;65.00;;;;;;5066580;28;20055;-21
2022/02/24 02:20:47;;;;;;;2.30;2.10;;;17.00;65.10;;;;;;5065820;28;20048;-21
2022/02/24 02:23:13;;;;;;;1.90;1.80;;;17.00;65.10;;;;;;5064321;28;20257;-21
2022/02/24 02:25:39;;;;;;;1.83;1.73;;;17.00;65.10;;;;;;5064484;28;20056;-22
2022/02/24 02:28:04;;;;;;;2.22;2.13;;;17.00;65.10;;;;;;5065668;28;20124;-21
2022/02/24 02:30:31;;;;;;;1.80;1.70;;;17.00;64.90;;;;;;5066532;28;20524;-21
2022/02/24 02:32:57;;;;;;;2.10;1.63;;;17.00;65.10;;;;;;5066142;28;20181;-21
2022/02/24 02:35:23;;;;;;;1.92;1.80;;;17.00;65.10;;;;;;5064813;28;20516;-21
2022/02/24 02:37:49;;;;;;;1.60;1.50;;;17.00;65.10;;;;;;5066032;28;20433;-21
2022/02/24 02:40:15;;;;;;;1.73;1.42;;;17.10;65.00;;;;;;5068729;28;20051;-21
2022/02/24 02:42:41;;;;;;;1.48;1.25;;;17.00;65.10;;;;;;5063894;28;20048;-21
2022/02/24 02:45:07;;;;;;;1.42;1.30;;;17.00;65.10;;;;;;5065628;28;20056;-21
2022/02/24 02:47:32;;;;;;;2.20;1.73;;;17.00;65.10;;;;;;5066533;28;20080;-21
2022/02/24 02:49:58;;;;;;;2.40;1.60;;;17.00;65.10;;;;;;5062401;28;20049;-21
2022/02/24 02:52:24;;;;;;;2.25;1.50;;;17.00;65.10;;;;;;5065554;28;20048;-21
2022/02/24 02:54:51;;;;;;;1.90;1.70;;;17.00;65.00;;;;;;5064304;28;20044;-21
2022/02/24 02:57:16;;;;;;;1.65;1.55;;;17.00;64.90;;;;;;5064298;28;20110;-21
2022/02/24 02:59:42;;;;;;;1.50;1.40;;;17.00;64.90;;;;;;5064436;28;20044;-21
2022/02/24 03:02:10;;;;;;;1.50;1.40;;;17.00;65.10;;;;;;5069460;28;20501;-21
2022/02/24 03:04:35;;;;;;;2.05;1.67;;;16.90;65.00;;;;;;5066573;28;20048;-21
2022/02/24 03:07:01;;;;;;;1.58;1.42;;;17.00;65.10;;;;;;5065398;28;20037;-21
2022/02/24 03:09:26;;;;;;;1.50;1.40;;;17.00;65.00;;;;;;5066636;28;20049;-21
2022/02/24 03:11:52;;;;;;;1.63;1.52;;;17.00;65.00;;;;;;5065156;28;20238;-21
2022/02/24 03:14:17;;;;;;;1.65;1.52;;;17.00;65.10;;;;;;5064925;28;20048;-21
2022/02/24 03:16:43;;;;;;;1.90;1.70;;;17.00;65.00;;;;;;5063024;28;20037;-21
2022/02/24 03:19:11;;;;;;;1.80;1.50;;;16.90;65.00;;;;;;5024813;28;1145874;-21
2022/02/24 03:21:36;;;;;;;1.52;1.42;;;16.90;65.00;;;;;;5067219;28;20553;-21
2022/02/24 03:24:02;;;;;;;1.50;1.40;;;16.90;65.00;;;;;;5061569;28;20049;-21
2022/02/24 03:26:27;;;;;;;1.50;1.40;;;17.00;64.90;;;;;;5068304;28;20071;-21
2022/02/24 03:28:53;;;;;;;1.30;1.17;;;16.90;65.00;;;;;;5056080;28;20041;-21
2022/02/24 03:31:19;;;;;;;1.38;1.27;;;17.00;64.90;;;;;;5056865;28;20103;-21
2022/02/24 03:33:44;;;;;;;1.70;1.60;;;16.90;64.90;;;;;;5054921;28;20052;-21
2022/02/24 03:36:11;;;;;;;1.63;1.52;;;16.90;65.10;;;;;;5060385;28;20036;-21
2022/02/24 03:38:36;;;;;;;1.65;1.55;;;16.90;65.00;;;;;;5074164;28;20048;-21
2022/02/24 03:41:02;;;;;;;1.88;1.50;;;16.90;64.90;;;;;;5075174;28;20161;-21
2022/02/24 03:43:28;;;;;;;1.63;1.33;;;16.90;64.90;;;;;;5071842;28;20033;-21
2022/02/24 03:45:53;;;;;;;1.23;1.13;;;16.90;64.90;;;;;;5061077;28;20570;-21
2022/02/24 03:48:19;;;;;;;1.45;1.35;;;16.90;64.90;;;;;;5076218;28;20048;-21
2022/02/24 03:50:44;;;;;;;1.33;1.23;;;16.90;65.80;;;;;;5057070;28;20037;-21
2022/02/24 03:53:10;;;;;;;1.48;1.38;;;16.90;65.00;;;;;;5056205;28;20524;-21
2022/02/24 03:55:35;;;;;;;1.80;1.40;;;16.90;64.90;;;;;;5063920;28;20524;-21
2022/02/24 03:58:01;;;;;;;1.40;1.30;;;16.90;65.00;;;;;;5074300;28;20048;-21
2022/02/24 04:00:27;;;;;;;1.27;1.15;;;16.90;65.00;;;;;;5056134;28;20501;-21
2022/02/24 04:02:53;;;;;;;2.38;1.30;;;16.90;65.00;;;;;;5064051;28;20048;-21
2022/02/24 04:05:19;;;;;;;1.00;0.95;;;16.80;65.00;;;;;;5068918;28;20071;-21
2022/02/24 04:07:45;;;;;;;1.30;1.15;;;16.90;65.00;;;;;;5070732;28;20059;-21
2022/02/24 04:10:10;;;;;;;1.27;1.13;;;16.90;64.90;;;;;;5075984;28;20036;-21
2022/02/24 04:12:36;;;;;;;1.23;1.13;;;16.90;64.80;;;;;;5072650;28;20135;-21
2022/02/24 04:15:01;;;;;;;1.40;1.30;;;16.90;65.00;;;;;;5055205;28;21455;-21
2022/02/24 04:17:27;;;;;;;1.98;1.40;;;16.90;65.10;;;;;;5065765;28;20079;-21
2022/02/24 04:19:53;;;;;;;1.38;1.27;;;16.80;65.00;;;;;;5069958;28;20083;-21
2022/02/24 04:22:18;;;;;;;1.10;1.02;;;16.80;65.00;;;;;;5060717;28;20049;-21
2022/02/24 04:24:44;;;;;;;1.48;1.00;;;16.80;65.00;;;;;;5055206;28;20102;-21
2022/02/24 04:27:10;;;;;;;1.50;1.40;;;16.80;65.10;;;;;;5059662;28;20051;-21
2022/02/24 04:29:36;;;;;;;1.10;0.98;;;16.90;65.00;;;;;;5055194;28;20044;-21
2022/02/24 04:32:02;;;;;;;1.50;1.08;;;16.80;65.00;;;;;;5054974;28;20048;-21
2022/02/24 04:34:27;;;;;;;1.30;1.20;;;16.80;65.10;;;;;;5067119;28;20048;-21
2022/02/24 04:36:53;;;;;;;1.10;1.00;;;16.80;65.20;;;;;;5074953;28;20044;-21
2022/02/24 04:39:19;;;;;;;1.50;1.35;;;16.80;65.10;;;;;;5064237;28;20509;-21
2022/02/24 04:41:44;;;;;;;1.50;1.40;;;16.80;65.40;;;;;;5065835;28;20072;-22
2022/02/24 04:44:10;;;;;;;0.85;0.85;;;16.90;65.30;;;;;;5075644;28;20032;-21
2022/02/24 04:46:35;;;;;;;1.48;0.93;;;16.80;65.50;;;;;;5063831;28;20505;-21
2022/02/24 04:49:01;;;;;;;1.20;1.10;;;16.80;65.20;;;;;;5055261;28;20032;-27
2022/02/24 04:51:26;;;;;;;1.38;1.20;;;16.80;65.20;;;;;;5055581;28;20048;-21
2022/02/24 04:53:52;;;;;;;1.48;1.38;;;16.80;65.30;;;;;;5054877;28;20635;-21
2022/02/24 04:56:18;;;;;;;1.30;0.88;;;16.80;65.40;;;;;;5058931;28;20041;-21
2022/02/24 04:58:43;;;;;;;1.27;1.17;;;16.80;65.30;;;;;;5055683;28;20411;-21
2022/02/24 05:01:09;;;;;;;1.10;1.00;;;16.80;65.30;;;;;;5054778;28;20079;-21
2022/02/24 05:03:34;;;;;;;1.05;0.95;;;16.80;65.30;;;;;;5055437;28;20580;-21
2022/02/24 05:06:00;;;;;;;1.48;1.00;;;16.80;65.40;;;;;;5062693;28;20043;-21
2022/02/24 05:08:25;;;;;;;1.60;1.25;;;16.80;65.40;;;;;;5055699;28;20045;-21
2022/02/24 05:10:52;;;;;;;1.20;1.10;;;16.80;65.30;;;;;;5057593;28;20049;-22
2022/02/24 05:13:18;;;;;;;1.05;0.95;;;16.80;65.30;;;;;;5057637;28;20049;-21
2022/02/24 05:15:43;;;;;;;0.90;0.90;;;16.80;65.30;;;;;;5055220;28;20482;-21
2022/02/24 05:18:09;;;;;;;1.10;1.00;;;16.80;65.50;;;;;;5054389;28;20088;-22
2022/02/24 05:20:36;;;;;;;1.05;0.98;;;16.80;66.40;;;;;;5057777;28;20052;-21
2022/02/24 05:23:02;;;;;;;1.30;1.20;;;16.80;65.50;;;;;;5074227;28;20154;-22
2022/02/24 05:25:30;;;;;;;1.20;1.10;;;16.80;65.50;;;;;;5068573;28;20145;-21
2022/02/24 05:27:55;;;;;;;1.10;1.00;;;16.80;65.40;;;;;;5073704;28;20064;-21
2022/02/24 05:30:21;;;;;;;0.98;0.80;;;16.80;65.50;;;;;;5066657;28;20559;-21
2022/02/24 05:32:46;;;;;;;0.85;0.82;;;16.80;65.50;;;;;;5065205;28;20047;-21
2022/02/24 05:35:12;;;;;;;1.45;0.95;;;16.70;65.70;;;;;;5066804;28;20131;-21
2022/02/24 05:37:38;;;;;;;1.30;1.20;;;16.70;65.70;;;;;;5065093;28;20051;-21
2022/02/24 05:40:04;;;;;;;1.17;1.08;;;16.70;65.80;;;;;;5063448;28;20052;-21
2022/02/24 05:42:30;;;;;;;0.90;0.90;;;16.70;65.70;;;;;;5061511;28;20119;-21
2022/02/24 05:44:56;;;;;;;1.40;1.30;;;16.70;65.70;;;;;;5063789;28;20083;-22
2022/02/24 05:47:21;;;;;;;1.10;0.75;;;16.70;65.50;;;;;;5062946;28;20072;-21
2022/02/24 05:49:47;;;;;;;0.75;0.75;;;16.80;65.50;;;;;;5065922;28;20041;-21
2022/02/24 05:52:13;;;;;;;0.70;0.70;;;16.70;65.50;;;;;;5068647;28;20170;-21
2022/02/24 05:54:38;;;;;;;1.55;0.90;;;16.80;65.50;;;;;;5065133;28;20045;-21
2022/02/24 05:57:04;;;;;;;0.90;0.80;;;16.80;65.50;;;;;;5063590;28;20097;-21
2022/02/24 05:59:30;;;;;;;1.13;1.02;;;16.70;65.50;;;;;;5062019;28;20120;-21
2022/02/24 06:01:56;;;;;;;0.70;0.60;;;16.70;65.60;;;;;;5066917;28;20173;-21
2022/02/24 06:04:22;;;;;;;1.67;0.65;;;16.70;65.70;;;;;;5066974;28;20150;-21
2022/02/24 06:06:49;;;;;;;0.85;0.80;;;16.70;65.70;;;;;;5070160;28;20517;-21
2022/02/24 06:09:14;;;;;;;0.82;0.82;;;16.70;65.60;;;;;;5072263;28;20041;-21
2022/02/24 06:11:40;;;;;;;0.98;0.82;;;16.70;65.80;;;;;;5067061;28;20052;-21
2022/02/24 06:14:06;;;;;;;3.67;2.53;;;16.70;65.90;;;;;;5063805;28;20128;-21
2022/02/24 06:16:33;;;;;;;2.58;1.88;;;16.70;66.60;;;;;;5072822;28;20438;-22
2022/02/24 06:18:58;;;;;;;1.92;1.83;;;16.70;67.10;;;;;;5064821;28;20048;-22
2022/02/24 06:21:24;;;;;;;3.03;1.60;;;16.70;67.10;;;;;;5075157;28;20072;-21
2022/02/24 06:23:50;;;;;;;2.50;2.10;;;16.80;67.10;;;;;;4367355;28;10000939;-23
2022/02/24 06:26:15;;;;;;;2.45;1.63;;;16.80;67.00;;;;;;5066143;28;20287;-22
2022/02/24 06:28:41;;;;;;;1.45;1.35;;;16.80;66.80;;;;;;5070947;28;20045;-21
2022/02/24 06:31:07;;;;;;;1.60;1.50;;;16.80;66.90;;;;;;5061598;28;20049;-21
2022/02/24 06:33:33;;;;;;;2.92;1.90;;;16.80;67.10;;;;;;5073925;28;20047;-21
2022/02/24 06:35:59;;;;;;;2.25;1.98;;;16.80;67.00;;;;;;5073166;28;20037;-21
2022/02/24 06:38:24;;;;;;;3.05;1.90;;;16.80;67.20;;;;;;5063325;28;20438;-21
2022/02/24 06:40:50;;;;;;;6.18;2.35;;;16.80;67.10;;;;;;5056922;28;20077;-22
2022/02/24 06:43:15;;;;;;;5.13;3.33;;;16.80;67.40;;;;;;5075519;28;20051;-21
2022/02/24 06:45:41;;;;;;;9.30;2.60;;;16.80;67.50;;;;;;5069649;28;20036;-21
2022/02/24 06:48:07;;;;;;;7.65;2.50;;;16.80;67.50;;;;;;5067017;28;20543;-21
2022/02/24 06:50:32;;;;;;;5.30;2.72;;;16.80;67.40;;;;;;5066357;28;20048;-21
2022/02/24 06:52:58;;;;;;;5.97;3.10;;;16.80;67.80;;;;;;5076099;28;20041;-21
2022/02/24 06:55:23;;;;;;;8.32;3.38;;;16.80;68.20;;;;;;5061286;28;20052;-21
2022/02/24 06:57:52;;;;;;;6.68;3.25;;;16.70;69.20;;;;;;5057281;28;20169;-21
2022/02/24 07:00:18;;;;;;;8.25;3.30;;;16.70;68.40;;;;;;5056990;28;20048;-21
2022/02/24 07:02:44;;;;;;;7.90;2.83;;;16.70;68.40;;;;;;5057005;28;20071;-21
2022/02/24 07:05:09;;;;;;;7.03;2.60;;;16.70;68.20;;;;;;5072784;28;20052;-22
2022/02/24 07:07:35;;;;;;;6.53;2.95;;;16.80;68.10;;;;;;5077207;28;20041;-21
2022/02/24 07:10:05;;;;;;;5.97;2.65;;;16.70;68.00;;;;;;5072392;28;20070;-21
2022/02/24 07:12:35;;;;;;;4.25;2.65;;;16.80;67.90;;;;;;5056685;28;20095;-21
2022/02/24 07:15:00;;;;;;;7.75;2.35;;;16.80;67.80;;;;;;5076664;28;20048;-21
2022/02/24 07:17:26;;;;;;;5.32;2.58;;;16.70;67.80;;;;;;5072908;28;20052;-21
2022/02/24 07:19:51;;;;;;;8.23;2.70;;;16.70;67.80;;;;;;5057126;28;20041;-21
2022/02/24 07:22:17;;;;;;;5.72;2.88;;;16.70;67.70;;;;;;5056241;28;20546;-21
2022/02/24 07:24:42;;;;;;;7.35;2.63;;;16.70;67.80;;;;;;5056944;28;20045;-21
2022/02/24 07:27:08;;;;;;;3.95;2.03;;;16.80;67.50;;;;;;5060285;28;20124;-21
2022/02/24 07:29:34;;;;;;;4.88;2.58;;;16.80;67.60;;;;;;5066176;28;20547;-21
2022/02/24 07:31:59;;;;;;;3.20;2.33;;;16.70;67.50;;;;;;5056241;28;20052;-21
2022/02/24 07:34:25;;;;;;;4.63;2.65;;;16.70;67.40;;;;;;5060142;28;20041;-21
2022/02/24 07:36:50;;;;;;;3.72;2.58;;;16.80;67.40;;;;;;5064356;28;20040;-21
2022/02/24 07:39:17;;;;;;;2.88;2.10;;;16.70;67.30;;;;;;5059837;28;20506;-22
2022/02/24 07:41:43;;;;;;;4.97;2.17;;;16.80;67.20;;;;;;5056480;28;20037;-21
2022/02/24 07:44:09;;;;;;;4.32;2.42;;;16.80;67.30;;;;;;5056270;28;20041;-21
2022/02/24 07:46:34;;;;;;;7.03;2.72;;;16.80;67.20;;;;;;5067792;28;20048;-21
2022/02/24 07:49:00;;;;;;;2.83;2.10;;;16.70;67.10;;;;;;5068601;28;20391;-21
2022/02/24 07:51:26;;;;;;;4.45;2.30;;;16.80;67.10;;;;;;5056652;28;20048;-21
2022/02/24 07:53:52;;;;;;;3.35;2.35;;;16.80;67.10;;;;;;5056027;28;20041;-21
2022/02/24 07:56:17;;;;;;;5.53;2.13;;;16.80;66.90;;;;;;5055804;28;20042;-21
2022/02/24 07:58:43;;;;;;;2.63;1.90;;;16.80;66.90;;;;;;5056259;28;20036;-21
2022/02/24 08:01:09;;;;;;;4.07;1.88;;;16.80;67.00;;;;;;5054200;28;20053;-21
2022/02/24 08:03:34;;;;;;;3.60;1.88;;;16.80;66.90;;;;;;5056285;28;20238;-21
2022/02/24 08:06:00;;;;;;;3.25;2.20;;;16.70;66.80;;;;;;5055689;28;20497;-21
2022/02/24 08:08:26;;;;;;;4.65;1.90;;;16.80;66.80;;;;;;5055812;28;20037;-21
2022/02/24 08:10:51;;;;;;;6.05;2.30;;;16.80;66.70;;;;;;5056391;28;20457;-21
2022/02/24 08:13:17;;;;;;;2.10;1.67;;;16.80;67.40;;;;;;5055491;28;20099;-21
2022/02/24 08:15:43;;;;;;;3.13;1.90;;;16.70;66.70;;;;;;5056057;28;20399;-21
2022/02/24 08:18:08;;;;;;;4.55;1.30;;;16.80;66.70;;;;;;5055377;28;20088;-21
2022/02/24 08:20:34;;;;;;;3.85;1.92;;;16.80;66.60;;;;;;5055936;28;20087;-21
2022/02/24 08:23:03;;;;;;;1.88;1.77;;;16.80;66.60;;;;;;5055822;28;20395;-21
2022/02/24 08:25:29;;;;;;;2.95;2.20;;;16.80;66.50;;;;;;5068242;28;20061;-21
2022/02/24 08:27:55;;;;;;;2.13;1.80;;;16.70;66.60;;;;;;5072079;28;20049;-21
2022/02/24 08:30:21;;;;;;;2.83;1.73;;;16.80;66.50;;;;;;5054986;28;20052;-21
2022/02/24 08:32:47;;;;;;;2.13;1.65;;;16.80;66.50;;;;;;5055215;28;20506;-21
2022/02/24 08:35:13;;;;;;;3.63;1.52;;;16.80;66.40;;;;;;5054300;28;20597;-21
2022/02/24 08:37:39;;;;;;;1.67;1.58;;;16.80;66.40;;;;;;5064134;28;20040;-21
2022/02/24 08:40:05;;;;;;;2.90;1.75;;;16.80;66.40;;;;;;5066248;28;20406;-21
2022/02/24 08:42:31;;;;;;;2.15;1.40;;;16.80;66.30;;;;;;5055655;28;20556;-22
2022/02/24 08:44:57;;;;;;;2.85;1.95;;;16.90;66.20;;;;;;5055841;28;20107;-21
2022/02/24 08:47:22;;;;;;;3.75;1.48;;;16.80;66.10;;;;;;5072479;28;20064;-21
2022/02/24 08:49:49;;;;;;;2.25;1.80;;;16.80;66.00;;;;;;5073711;28;20044;-21
2022/02/24 08:52:14;;;;;;;2.15;1.90;;;16.80;66.20;;;;;;5064751;28;20051;-21
2022/02/24 08:54:40;;;;;;;4.93;1.70;;;16.80;66.10;;;;;;5053577;28;20129;-21
2022/02/24 08:57:06;;;;;;;1.70;1.30;;;16.80;66.20;;;;;;5053568;28;20048;-21
2022/02/24 08:59:32;;;;;;;3.40;1.80;;;16.80;66.20;;;;;;5054018;28;20045;-21
2022/02/24 09:01:57;;;;;;;2.13;1.25;;;16.80;66.10;;;;;;5054152;28;20405;-21
2022/02/24 09:04:23;;;;;;;1.40;1.17;;;16.70;66.10;;;;;;5054595;28;20048;-21
2022/02/24 09:06:49;;;;;;;1.70;1.60;;;16.80;66.10;;;;;;5055647;28;20052;-22
2022/02/24 09:09:14;;;;;;;1.30;1.20;;;16.80;66.10;;;;;;5054521;28;20037;-21
2022/02/24 09:11:40;;;;;;;1.92;1.23;;;16.80;66.00;;;;;;5055589;28;20696;-21
2022/02/24 09:14:06;;;;;;;1.40;1.20;;;16.80;66.10;;;;;;5054938;28;20045;-21
2022/02/24 09:16:32;;;;;;;2.08;1.30;;;16.70;66.00;;;;;;5055419;28;20519;-22
2022/02/24 09:18:57;;;;;;;1.60;1.50;;;16.80;65.90;;;;;;5055170;28;20056;-21
2022/02/24 09:21:23;;;;;;;1.25;1.15;;;16.80;66.00;;;;;;5054626;28;20448;-21
2022/02/24 09:23:49;;;;;;;1.38;1.27;;;16.80;65.90;;;;;;5054922;28;20049;-21
2022/02/24 09:26:15;;;;;;;3.17;1.17;;;16.80;65.90;;;;;;5054524;28;20040;-21
2022/02/24 09:28:41;;;;;;;2.50;1.42;;;16.80;65.90;;;;;;5055597;28;20044;-21
2022/02/24 09:31:06;;;;;;;2.35;1.10;;;16.80;65.90;;;;;;5054607;28;20044;-22
2022/02/24 09:33:32;;;;;;;1.35;1.13;;;16.80;65.90;;;;;;5055305;28;20056;-21
2022/02/24 09:35:57;;;;;;;2.55;1.20;;;16.70;66.00;;;;;;5055896;28;20052;-21
2022/02/24 09:38:24;;;;;;;4.00;1.33;;;16.70;66.00;;;;;;5074035;28;20041;-21
2022/02/24 09:40:52;;;;;;;1.27;1.17;;;16.70;66.10;;;;;;5060360;28;20053;-22
2022/02/24 09:43:20;;;;;;;1.58;1.40;;;16.70;66.00;;;;;;5058288;28;20041;-21
2022/02/24 09:45:49;;;;;;;2.30;1.27;;;16.70;66.00;;;;;;5063373;28;20063;-22
2022/02/24 09:48:18;;;;;;;1.83;1.40;;;16.70;65.90;;;;;;5078236;28;20037;-21
2022/02/24 09:50:50;;;;;;;1.35;1.10;;;16.70;65.90;;;;;;5077549;28;20052;-21
2022/02/24 09:53:16;;;;;;;1.58;1.00;;;16.70;66.00;;;;;;5058784;28;20094;-21
2022/02/24 09:55:42;;;;;;;1.10;0.90;;;16.70;65.90;;;;;;5058610;28;20049;-22
2022/02/24 09:58:07;;;;;;;1.00;0.90;;;16.70;65.90;;;;;;5057829;28;20056;-21
2022/02/24 10:00:33;;;;;;;3.00;1.25;;;16.70;65.90;;;;;;5058598;28;20064;-21
2022/02/24 10:02:58;;;;;;;1.67;1.08;;;16.70;65.80;;;;;;5058594;28;20049;-21
2022/02/24 10:05:24;;;;;;;1.05;0.95;;;16.70;65.90;;;;;;5062448;28;20068;-21
2022/02/24 10:07:52;;;;;;;1.70;1.00;;;16.80;65.70;;;;;;5078308;28;20064;-21
2022/02/24 10:10:25;;;;;;;1.65;1.10;;;16.80;65.70;;;;;;5073070;28;20104;-21
2022/02/24 10:13:04;;;;;;;2.20;1.00;;;16.80;65.70;;;;;;5058251;28;20048;-21
2022/02/24 10:15:30;;;;;;;1.40;1.30;;;16.70;65.60;;;;;;5057902;28;20417;-22
2022/02/24 10:18:12;;;;;;;1.77;1.25;;;16.80;65.80;;;;;;5058054;28;20048;-21
2022/02/24 10:20:39;;;;;;;1.10;1.00;;;16.80;65.80;;;;;;5057658;28;20048;-21
2022/02/24 10:23:05;;;;;;;0.80;0.80;;;16.70;65.80;;;;;;5057244;28;20044;-23
2022/02/24 10:25:45;;;;;;;1.10;0.70;;;16.70;65.70;;;;;;5058360;28;20056;-21
2022/02/24 10:28:42;;;;;;;1.33;1.23;;;16.70;65.70;;;;;;5057608;28;20441;-21
2022/02/24 10:31:12;;;;;;;1.90;0.90;;;16.70;65.70;;;;;;5057443;28;20041;-22
2022/02/24 10:33:39;;;;;;;1.40;1.02;;;16.70;65.80;;;;;;5058312;28;20449;-22
2022/02/24 10:36:20;;;;;;;1.23;0.90;;;16.70;65.90;;;;;;5057437;28;20080;-22
2022/02/24 10:39:03;;;;;;;1.15;1.05;;;16.70;65.90;;;;;;5068396;28;20045;-21
2022/02/24 10:41:36;;;;;;;1.15;0.90;;;16.70;65.80;;;;;;5057300;28;20041;-21
2022/02/24 10:44:19;;;;;;;0.93;0.60;;;16.70;65.70;;;;;;5058150;28;20056;-21
2022/02/24 10:46:49;;;;;;;1.10;0.90;;;16.70;65.70;;;;;;5069573;28;20270;-21
2022/02/24 10:49:36;;;;;;;1.10;0.90;;;16.70;65.70;;;;;;5074189;28;20094;-21
2022/02/24 10:52:15;;;;;;;1.63;1.50;;;16.70;65.80;;;;;;5057589;28;20099;-21
2022/02/24 10:55:04;;;;;;;0.65;0.65;;;16.70;65.80;;;;;;5057248;28;20087;-21
2022/02/24 10:57:30;;;;;;;2.08;0.90;;;16.80;65.60;;;;;;5056891;28;20090;-21
2022/02/24 10:59:56;;;;;;;1.17;0.90;;;16.70;65.60;;;;;;5057782;28;20049;-21
2022/02/24 11:02:22;;;;;;;1.10;0.80;;;16.70;65.60;;;;;;5056916;28;20044;-21
2022/02/24 11:04:48;;;;;;;0.95;0.85;;;16.70;65.70;;;;;;5057296;28;20048;-21
2022/02/24 11:07:15;;;;;;;2.90;0.80;;;16.80;65.60;;;;;;5056758;28;20535;-21
2022/02/24 11:09:42;;;;;;;0.82;0.82;;;16.80;65.50;;;;;;5056037;28;20044;-22
2022/02/24 11:12:09;;;;;;;0.80;0.65;;;16.80;65.60;;;;;;5057397;28;20065;-21
2022/02/24 11:14:35;;;;;;;1.08;0.80;;;16.80;65.60;;;;;;5056810;28;20135;-21
2022/02/24 11:17:06;;;;;;;0.80;0.80;;;16.70;66.30;;;;;;5057237;28;20044;-21
2022/02/24 11:19:32;;;;;;;1.45;0.70;;;16.70;65.50;;;;;;5055769;28;20073;-21
2022/02/24 11:21:59;;;;;;;0.85;0.73;;;16.70;65.60;;;;;;5073193;28;20401;-21
2022/02/24 11:24:25;;;;;;;1.27;0.73;;;16.70;65.70;;;;;;4712788;28;9999953;-21
2022/02/24 11:27:21;;;;;;;0.73;0.73;;;16.80;65.50;;;;;;5062935;28;20047;-21
2022/02/24 11:29:50;;;;;;;1.15;0.70;;;16.70;65.70;;;;;;5070272;28;20076;-21
2022/02/24 11:32:16;;;;;;;1.05;0.70;;;16.80;65.60;;;;;;5070146;28;20032;-21
2022/02/24 11:34:54;;;;;;;0.73;0.70;;;16.80;65.50;;;;;;5072080;28;20400;-21
2022/02/24 11:37:21;;;;;;;1.20;0.57;;;16.80;65.60;;;;;;5068806;28;20637;-21
2022/02/24 11:39:46;;;;;;;1.33;0.80;;;16.70;65.70;;;;;;5062172;28;20037;-22
2022/02/24 11:42:22;;;;;;;1.77;0.80;;;16.80;65.60;;;;;;5064240;28;20626;-21
2022/02/24 11:44:48;;;;;;;0.93;0.80;;;16.80;65.60;;;;;;5073070;28;20052;-21
2022/02/24 11:47:13;;;;;;;0.85;0.60;;;16.70;65.60;;;;;;5066097;28;20037;-21
2022/02/24 11:49:54;;;;;;;0.80;0.63;;;16.70;65.60;;;;;;5068863;28;20125;-21
2022/02/24 11:52:21;;;;;;;0.85;0.50;;;16.70;65.60;;;;;;5074713;28;20485;-21
2022/02/24 11:54:46;;;;;;;0.80;0.70;;;16.80;65.60;;;;;;5072675;28;20086;-21
2022/02/24 11:57:32;;;;;;;0.75;0.60;;;16.80;65.60;;;;;;5074356;28;20078;-21
2022/02/24 12:00:12;;;;;;;1.25;0.80;;;16.80;65.50;;;;;;5069869;28;20090;-21
2022/02/24 12:02:41;;;;;;;0.75;0.47;;;16.80;65.50;;;;;;5064394;28;20048;-21
2022/02/24 12:05:22;;;;;;;1.00;0.68;;;16.80;65.50;;;;;;5061884;28;20039;-21
2022/02/24 12:08:04;;;;;;;0.70;0.65;;;16.80;65.50;;;;;;5061491;28;20045;-21
2022/02/24 12:10:47;;;;;;;0.75;0.60;;;16.80;65.50;;;;;;5066833;28;20052;-21
2022/02/24 12:13:30;;;;;;;0.75;0.60;;;16.80;65.50;;;;;;5063978;28;20047;-21
2022/02/24 12:16:25;;;;;;;0.50;0.50;;;16.80;65.60;;;;;;5063718;28;20105;-21
2022/02/24 12:18:53;;;;;;;1.08;0.65;;;16.80;65.80;;;;;;5065028;28;20056;-21
2022/02/24 12:21:32;;;;;;;0.60;0.40;;;16.80;65.90;;;;;;5071441;28;20052;-21
2022/02/24 12:24:00;;;;;;;1.20;0.60;;;16.80;66.00;;;;;;5066835;28;20093;-21
2022/02/24 12:26:46;;;;;;;1.33;0.60;;;16.80;66.00;;;;;;5051211;28;20410;-22
2022/02/24 12:29:32;;;;;;;2.05;0.85;;;16.80;65.80;;;;;;5052795;28;20055;-21
2022/02/24 12:32:01;;;;;;;1.05;0.60;;;16.80;66.10;;;;;;5061553;28;20048;-22
2022/02/24 12:34:27;;;;;;;0.70;0.50;;;16.80;65.70;;;;;;5060292;28;20572;-21
2022/02/24 12:37:09;;;;;;;0.70;0.60;;;16.90;65.80;;;;;;5052484;28;20044;-21
2022/02/24 12:39:36;;;;;;;0.70;0.60;;;16.90;65.90;;;;;;5064395;28;20048;-21
2022/02/24 12:42:02;;;;;;;0.57;0.50;;;16.90;66.00;;;;;;5067837;28;20287;-22
2022/02/24 12:44:28;;;;;;;0.70;0.50;;;16.90;66.40;;;;;;5068523;28;20036;-21
2022/02/24 12:46:54;;;;;;;1.63;0.68;;;16.90;66.00;;;;;;5069461;28;20052;-21